sensor_id;sensor_type;location;lat;lon;timestamp;temperature;humidity
57664;DHT22;43493;53.098;6.064;2023-09-19T00:02:19;14.60;99.90
57664;DHT22;43493;53.098;6.064;2023-09-19T00:04:45;14.60;99.90
57664;DHT22;43493;53.098;6.064;2023-09-19T00:07:11;14.50;99.90
57664;DHT22;43493;53.098;6.064;2023-09-19T00:09:36;14.50;99.90
57664;DHT22;43493;53.098;6.064;2023-09-19T00:12:06;14.50;99.90
57664;DHT22;43493;53.098;6.064;2023-09-19T00:14:35;14.40;99.90
57664;DHT22;43493;53.098;6.064;2023-09-19T00:17:04;14.40;99.90
57664;DHT22;43493;53.098;6.064;2023-09-19T00:19:35;14.40;99.90
57664;DHT22;43493;53.098;6.064;2023-09-19T00:22:01;14.50;99.90
57664;DHT22;43493;53.098;6.064;2023-09-19T00:24:26;14.40;99.90
57664;DHT22;43493;53.098;6.064;2023-09-19T00:26:54;14.40;99.90
57664;DHT22;43493;53.098;6.064;2023-09-19T00:29:25;14.30;99.90
57664;DHT22;43493;53.098;6.064;2023-09-19T00:31:55;14.30;99.90
57664;DHT22;43493;53.098;6.064;2023-09-19T00:34:22;14.30;99.90
57664;DHT22;43493;53.098;6.064;2023-09-19T00:36:48;14.30;99.90
57664;DHT22;43493;53.098;6.064;2023-09-19T00:39:14;14.30;99.90
57664;DHT22;43493;53.098;6.064;2023-09-19T00:41:39;14.30;99.90
57664;DHT22;43493;53.098;6.064;2023-09-19T00:44:06;14.20;99.90
57664;DHT22;43493;53.098;6.064;2023-09-19T00:46:32;14.30;99.90
57664;DHT22;43493;53.098;6.064;2023-09-19T00:48:58;14.20;99.90
57664;DHT22;43493;53.098;6.064;2023-09-19T00:51:25;14.20;99.90
57664;DHT22;43493;53.098;6.064;2023-09-19T00:53:52;14.10;99.90
57664;DHT22;43493;53.098;6.064;2023-09-19T00:56:19;14.10;99.90
57664;DHT22;43493;53.098;6.064;2023-09-19T00:58:46;14.10;99.90
57664;DHT22;43493;53.098;6.064;2023-09-19T01:01:15;14.00;99.90
57664;DHT22;43493;53.098;6.064;2023-09-19T01:03:42;14.00;99.90
57664;DHT22;43493;53.098;6.064;2023-09-19T01:06:09;14.00;99.90
57664;DHT22;43493;53.098;6.064;2023-09-19T01:08:35;14.00;99.90
57664;DHT22;43493;53.098;6.064;2023-09-19T01:11:33;13.90;99.90
57664;DHT22;43493;53.098;6.064;2023-09-19T01:16:50;14.00;99.90
57664;DHT22;43493;53.098;6.064;2023-09-19T01:22:25;13.90;99.90
57664;DHT22;43493;53.098;6.064;2023-09-19T01:30:33;13.80;99.90
57664;DHT22;43493;53.098;6.064;2023-09-19T01:33:01;13.80;99.90
57664;DHT22;43493;53.098;6.064;2023-09-19T01:35:29;13.80;99.90
57664;DHT22;43493;53.098;6.064;2023-09-19T01:37:55;13.80;99.90
57664;DHT22;43493;53.098;6.064;2023-09-19T01:40:21;13.80;99.90
57664;DHT22;43493;53.098;6.064;2023-09-19T01:43:09;13.80;99.90
57664;DHT22;43493;53.098;6.064;2023-09-19T01:50:55;13.70;99.90
57664;DHT22;43493;53.098;6.064;2023-09-19T01:53:23;13.70;99.90
57664;DHT22;43493;53.098;6.064;2023-09-19T01:55:51;13.70;99.90
57664;DHT22;43493;53.098;6.064;2023-09-19T01:58:57;13.70;99.90
57664;DHT22;43493;53.098;6.064;2023-09-19T02:01:22;13.70;99.90
57664;DHT22;43493;53.098;6.064;2023-09-19T02:03:50;13.70;99.90
57664;DHT22;43493;53.098;6.064;2023-09-19T02:06:16;13.70;99.90
57664;DHT22;43493;53.098;6.064;2023-09-19T02:08:44;13.70;99.90
57664;DHT22;43493;53.098;6.064;2023-09-19T02:11:11;13.70;99.90
57664;DHT22;43493;53.098;6.064;2023-09-19T02:13:38;13.70;99.90
57664;DHT22;43493;53.098;6.064;2023-09-19T02:16:04;13.70;99.90
57664;DHT22;43493;53.098;6.064;2023-09-19T02:18:30;13.70;99.90
57664;DHT22;43493;53.098;6.064;2023-09-19T02:20:56;13.70;99.90
57664;DHT22;43493;53.098;6.064;2023-09-19T02:23:24;13.70;99.90
57664;DHT22;43493;53.098;6.064;2023-09-19T02:25:54;13.60;99.90
57664;DHT22;43493;53.098;6.064;2023-09-19T02:28:20;13.60;99.90
57664;DHT22;43493;53.098;6.064;2023-09-19T02:30:49;13.60;99.90
57664;DHT22;43493;53.098;6.064;2023-09-19T02:33:16;13.70;99.90
57664;DHT22;43493;53.098;6.064;2023-09-19T02:35:42;13.70;99.90
57664;DHT22;43493;53.098;6.064;2023-09-19T02:38:08;13.70;99.90
57664;DHT22;43493;53.098;6.064;2023-09-19T02:40:37;13.70;99.90
57664;DHT22;43493;53.098;6.064;2023-09-19T02:43:03;13.70;99.90
57664;DHT22;43493;53.098;6.064;2023-09-19T02:45:29;13.70;99.90
57664;DHT22;43493;53.098;6.064;2023-09-19T02:47:56;13.80;99.90
57664;DHT22;43493;53.098;6.064;2023-09-19T02:50:22;13.80;99.90
57664;DHT22;43493;53.098;6.064;2023-09-19T02:52:48;13.80;99.90
57664;DHT22;43493;53.098;6.064;2023-09-19T02:55:17;13.80;99.90
57664;DHT22;43493;53.098;6.064;2023-09-19T02:57:48;13.80;99.90
57664;DHT22;43493;53.098;6.064;2023-09-19T03:00:14;13.80;99.90
57664;DHT22;43493;53.098;6.064;2023-09-19T03:02:40;13.80;99.90
57664;DHT22;43493;53.098;6.064;2023-09-19T03:05:07;13.80;99.90
57664;DHT22;43493;53.098;6.064;2023-09-19T03:07:33;13.70;99.90
57664;DHT22;43493;53.098;6.064;2023-09-19T03:09:59;13.70;99.90
57664;DHT22;43493;53.098;6.064;2023-09-19T03:12:26;13.70;99.90
57664;DHT22;43493;53.098;6.064;2023-09-19T03:14:52;13.70;99.90
57664;DHT22;43493;53.098;6.064;2023-09-19T03:17:18;13.60;99.90
57664;DHT22;43493;53.098;6.064;2023-09-19T03:19:45;13.60;99.90
57664;DHT22;43493;53.098;6.064;2023-09-19T03:22:13;13.60;99.90
57664;DHT22;43493;53.098;6.064;2023-09-19T03:24:39;13.60;99.90
57664;DHT22;43493;53.098;6.064;2023-09-19T03:27:05;13.60;99.90
57664;DHT22;43493;53.098;6.064;2023-09-19T03:29:31;13.60;99.90
57664;DHT22;43493;53.098;6.064;2023-09-19T03:31:56;13.60;99.90
57664;DHT22;43493;53.098;6.064;2023-09-19T03:34:22;13.60;99.90
57664;DHT22;43493;53.098;6.064;2023-09-19T03:36:48;13.60;99.90
57664;DHT22;43493;53.098;6.064;2023-09-19T03:39:13;13.60;99.90
57664;DHT22;43493;53.098;6.064;2023-09-19T03:41:41;13.70;99.90
57664;DHT22;43493;53.098;6.064;2023-09-19T03:44:07;13.70;99.90
57664;DHT22;43493;53.098;6.064;2023-09-19T03:46:33;13.70;99.90
57664;DHT22;43493;53.098;6.064;2023-09-19T03:49:01;13.70;99.90
57664;DHT22;43493;53.098;6.064;2023-09-19T03:51:26;13.80;99.90
57664;DHT22;43493;53.098;6.064;2023-09-19T03:53:52;13.80;99.90
57664;DHT22;43493;53.098;6.064;2023-09-19T03:56:18;13.80;99.90
57664;DHT22;43493;53.098;6.064;2023-09-19T03:58:43;13.80;99.90
57664;DHT22;43493;53.098;6.064;2023-09-19T04:01:10;13.70;99.90
57664;DHT22;43493;53.098;6.064;2023-09-19T04:03:35;13.70;99.90
57664;DHT22;43493;53.098;6.064;2023-09-19T04:06:16;13.70;99.90
57664;DHT22;43493;53.098;6.064;2023-09-19T04:08:42;13.70;99.90
57664;DHT22;43493;53.098;6.064;2023-09-19T04:11:09;13.70;99.90
57664;DHT22;43493;53.098;6.064;2023-09-19T04:13:35;13.70;99.90
57664;DHT22;43493;53.098;6.064;2023-09-19T04:16:02;13.80;99.90
57664;DHT22;43493;53.098;6.064;2023-09-19T04:18:30;13.80;99.90
57664;DHT22;43493;53.098;6.064;2023-09-19T04:21:02;13.80;99.90
57664;DHT22;43493;53.098;6.064;2023-09-19T04:23:29;13.80;99.90
57664;DHT22;43493;53.098;6.064;2023-09-19T04:25:55;13.80;99.90
57664;DHT22;43493;53.098;6.064;2023-09-19T04:28:21;13.80;99.90
57664;DHT22;43493;53.098;6.064;2023-09-19T04:30:47;13.80;99.90
57664;DHT22;43493;53.098;6.064;2023-09-19T04:33:13;13.80;99.90
57664;DHT22;43493;53.098;6.064;2023-09-19T04:35:42;13.80;99.90
57664;DHT22;43493;53.098;6.064;2023-09-19T04:38:08;13.80;99.90
57664;DHT22;43493;53.098;6.064;2023-09-19T04:40:34;13.80;99.90
57664;DHT22;43493;53.098;6.064;2023-09-19T04:43:00;13.80;99.90
57664;DHT22;43493;53.098;6.064;2023-09-19T04:45:27;13.80;99.90
57664;DHT22;43493;53.098;6.064;2023-09-19T04:47:53;13.90;99.90
57664;DHT22;43493;53.098;6.064;2023-09-19T04:50:20;13.90;99.90
57664;DHT22;43493;53.098;6.064;2023-09-19T04:52:49;13.90;99.90
57664;DHT22;43493;53.098;6.064;2023-09-19T04:55:19;13.90;99.90
57664;DHT22;43493;53.098;6.064;2023-09-19T04:57:50;13.90;99.90
57664;DHT22;43493;53.098;6.064;2023-09-19T05:00:17;13.90;99.90
57664;DHT22;43493;53.098;6.064;2023-09-19T05:02:49;13.90;99.90
57664;DHT22;43493;53.098;6.064;2023-09-19T05:05:14;14.00;99.90
57664;DHT22;43493;53.098;6.064;2023-09-19T05:07:42;14.00;99.90
57664;DHT22;43493;53.098;6.064;2023-09-19T05:10:08;14.00;99.90
57664;DHT22;43493;53.098;6.064;2023-09-19T05:12:35;14.00;99.90
57664;DHT22;43493;53.098;6.064;2023-09-19T05:15:05;14.00;99.90
57664;DHT22;43493;53.098;6.064;2023-09-19T05:17:34;14.10;99.90
57664;DHT22;43493;53.098;6.064;2023-09-19T05:20:01;14.10;99.90
57664;DHT22;43493;53.098;6.064;2023-09-19T05:22:43;14.10;99.90
57664;DHT22;43493;53.098;6.064;2023-09-19T05:25:11;14.10;99.90
57664;DHT22;43493;53.098;6.064;2023-09-19T05:27:42;14.10;99.90
57664;DHT22;43493;53.098;6.064;2023-09-19T05:30:09;14.10;99.90
57664;DHT22;43493;53.098;6.064;2023-09-19T05:32:34;14.10;99.90
57664;DHT22;43493;53.098;6.064;2023-09-19T05:35:00;14.10;99.90
57664;DHT22;43493;53.098;6.064;2023-09-19T05:37:26;14.10;99.90
57664;DHT22;43493;53.098;6.064;2023-09-19T05:39:52;14.20;99.90
57664;DHT22;43493;53.098;6.064;2023-09-19T05:42:19;14.20;99.90
57664;DHT22;43493;53.098;6.064;2023-09-19T05:44:45;14.20;99.90
57664;DHT22;43493;53.098;6.064;2023-09-19T05:47:10;14.20;99.90
57664;DHT22;43493;53.098;6.064;2023-09-19T05:49:36;14.20;99.90
57664;DHT22;43493;53.098;6.064;2023-09-19T05:52:05;14.30;99.90
57664;DHT22;43493;53.098;6.064;2023-09-19T05:54:32;14.30;99.90
57664;DHT22;43493;53.098;6.064;2023-09-19T05:57:00;14.30;99.90
57664;DHT22;43493;53.098;6.064;2023-09-19T05:59:27;14.30;99.90
57664;DHT22;43493;53.098;6.064;2023-09-19T06:01:53;14.30;99.90
57664;DHT22;43493;53.098;6.064;2023-09-19T06:04:18;14.30;99.90
57664;DHT22;43493;53.098;6.064;2023-09-19T06:06:45;14.40;99.90
57664;DHT22;43493;53.098;6.064;2023-09-19T06:09:14;14.40;99.90
57664;DHT22;43493;53.098;6.064;2023-09-19T06:11:43;14.50;99.90
57664;DHT22;43493;53.098;6.064;2023-09-19T06:14:08;14.50;99.90
57664;DHT22;43493;53.098;6.064;2023-09-19T06:16:36;14.60;99.90
57664;DHT22;43493;53.098;6.064;2023-09-19T06:19:03;14.70;99.90
57664;DHT22;43493;53.098;6.064;2023-09-19T06:21:32;14.70;99.90
57664;DHT22;43493;53.098;6.064;2023-09-19T06:23:57;14.80;99.90
57664;DHT22;43493;53.098;6.064;2023-09-19T06:26:24;14.80;99.90
57664;DHT22;43493;53.098;6.064;2023-09-19T06:28:52;14.80;99.90
57664;DHT22;43493;53.098;6.064;2023-09-19T06:31:18;14.90;99.90
57664;DHT22;43493;53.098;6.064;2023-09-19T06:33:43;14.90;99.90
57664;DHT22;43493;53.098;6.064;2023-09-19T06:36:09;14.90;99.90
57664;DHT22;43493;53.098;6.064;2023-09-19T06:38:36;15.00;99.90
57664;DHT22;43493;53.098;6.064;2023-09-19T06:41:05;15.10;99.90
57664;DHT22;43493;53.098;6.064;2023-09-19T06:43:31;15.30;99.90
57664;DHT22;43493;53.098;6.064;2023-09-19T06:45:58;15.50;99.90
57664;DHT22;43493;53.098;6.064;2023-09-19T06:48:25;15.70;99.90
57664;DHT22;43493;53.098;6.064;2023-09-19T06:50:53;16.30;99.90
57664;DHT22;43493;53.098;6.064;2023-09-19T06:53:20;16.90;99.90
57664;DHT22;43493;53.098;6.064;2023-09-19T06:55:46;17.10;99.90
57664;DHT22;43493;53.098;6.064;2023-09-19T06:58:13;17.20;99.90
57664;DHT22;43493;53.098;6.064;2023-09-19T07:00:39;17.50;99.90
57664;DHT22;43493;53.098;6.064;2023-09-19T07:03:08;18.00;99.90
57664;DHT22;43493;53.098;6.064;2023-09-19T07:05:38;18.50;99.90
57664;DHT22;43493;53.098;6.064;2023-09-19T07:08:06;19.10;99.90
57664;DHT22;43493;53.098;6.064;2023-09-19T07:10:32;19.50;99.90
57664;DHT22;43493;53.098;6.064;2023-09-19T07:13:03;19.90;99.90
57664;DHT22;43493;53.098;6.064;2023-09-19T07:15:31;20.40;99.90
57664;DHT22;43493;53.098;6.064;2023-09-19T07:17:59;20.60;99.90
57664;DHT22;43493;53.098;6.064;2023-09-19T07:20:26;20.60;99.90
57664;DHT22;43493;53.098;6.064;2023-09-19T07:22:53;20.20;99.90
57664;DHT22;43493;53.098;6.064;2023-09-19T07:25:21;19.90;99.90
57664;DHT22;43493;53.098;6.064;2023-09-19T07:27:46;19.60;99.90
57664;DHT22;43493;53.098;6.064;2023-09-19T07:30:12;19.50;99.90
57664;DHT22;43493;53.098;6.064;2023-09-19T07:32:38;19.50;99.90
57664;DHT22;43493;53.098;6.064;2023-09-19T07:35:06;19.40;99.90
57664;DHT22;43493;53.098;6.064;2023-09-19T07:37:32;19.20;99.90
57664;DHT22;43493;53.098;6.064;2023-09-19T07:39:59;18.90;99.90
57664;DHT22;43493;53.098;6.064;2023-09-19T07:42:26;18.80;99.90
57664;DHT22;43493;53.098;6.064;2023-09-19T07:44:52;18.70;99.90
57664;DHT22;43493;53.098;6.064;2023-09-19T07:47:20;18.60;99.90
57664;DHT22;43493;53.098;6.064;2023-09-19T07:49:48;18.50;99.90
57664;DHT22;43493;53.098;6.064;2023-09-19T07:52:15;18.40;99.90
57664;DHT22;43493;53.098;6.064;2023-09-19T07:54:41;18.30;99.90
57664;DHT22;43493;53.098;6.064;2023-09-19T07:57:10;18.20;99.90
57664;DHT22;43493;53.098;6.064;2023-09-19T07:59:37;18.00;99.90
57664;DHT22;43493;53.098;6.064;2023-09-19T08:02:04;17.80;99.90
57664;DHT22;43493;53.098;6.064;2023-09-19T08:04:30;17.70;99.90
57664;DHT22;43493;53.098;6.064;2023-09-19T08:06:58;17.60;99.90
57664;DHT22;43493;53.098;6.064;2023-09-19T08:09:26;17.40;99.90
57664;DHT22;43493;53.098;6.064;2023-09-19T08:11:53;17.30;99.90
57664;DHT22;43493;53.098;6.064;2023-09-19T08:14:18;17.20;99.90
57664;DHT22;43493;53.098;6.064;2023-09-19T08:16:44;17.20;99.90
57664;DHT22;43493;53.098;6.064;2023-09-19T08:19:10;17.20;99.90
57664;DHT22;43493;53.098;6.064;2023-09-19T08:21:36;17.30;99.90
57664;DHT22;43493;53.098;6.064;2023-09-19T08:24:02;17.30;99.90
57664;DHT22;43493;53.098;6.064;2023-09-19T08:26:29;17.30;99.90
57664;DHT22;43493;53.098;6.064;2023-09-19T08:28:56;17.40;99.90
57664;DHT22;43493;53.098;6.064;2023-09-19T08:31:22;17.40;99.90
57664;DHT22;43493;53.098;6.064;2023-09-19T08:33:49;17.40;99.90
57664;DHT22;43493;53.098;6.064;2023-09-19T08:36:17;17.50;99.90
57664;DHT22;43493;53.098;6.064;2023-09-19T08:38:42;17.50;99.90
57664;DHT22;43493;53.098;6.064;2023-09-19T08:41:08;17.50;99.90
57664;DHT22;43493;53.098;6.064;2023-09-19T08:43:34;17.60;99.90
57664;DHT22;43493;53.098;6.064;2023-09-19T08:48:32;17.60;99.90
57664;DHT22;43493;53.098;6.064;2023-09-19T08:54:07;17.70;99.90
57664;DHT22;43493;53.098;6.064;2023-09-19T08:56:34;17.80;99.90
57664;DHT22;43493;53.098;6.064;2023-09-19T08:59:03;17.90;99.90
57664;DHT22;43493;53.098;6.064;2023-09-19T09:01:29;17.90;99.90
57664;DHT22;43493;53.098;6.064;2023-09-19T09:03:58;17.90;99.90
57664;DHT22;43493;53.098;6.064;2023-09-19T09:06:25;17.90;99.90
57664;DHT22;43493;53.098;6.064;2023-09-19T09:08:51;17.80;99.90
57664;DHT22;43493;53.098;6.064;2023-09-19T09:11:18;17.90;99.90
57664;DHT22;43493;53.098;6.064;2023-09-19T09:13:44;17.90;99.90
57664;DHT22;43493;53.098;6.064;2023-09-19T09:16:11;18.00;99.90
57664;DHT22;43493;53.098;6.064;2023-09-19T09:18:38;18.00;99.90
57664;DHT22;43493;53.098;6.064;2023-09-19T09:21:04;18.00;99.90
57664;DHT22;43493;53.098;6.064;2023-09-19T09:23:30;17.90;99.90
57664;DHT22;43493;53.098;6.064;2023-09-19T09:25:58;18.00;99.90
57664;DHT22;43493;53.098;6.064;2023-09-19T09:28:26;18.10;99.90
57664;DHT22;43493;53.098;6.064;2023-09-19T09:30:54;18.10;99.90
57664;DHT22;43493;53.098;6.064;2023-09-19T09:33:20;18.20;99.90
57664;DHT22;43493;53.098;6.064;2023-09-19T09:35:50;18.20;99.90
57664;DHT22;43493;53.098;6.064;2023-09-19T09:38:23;18.10;99.90
57664;DHT22;43493;53.098;6.064;2023-09-19T09:40:54;18.10;99.90
57664;DHT22;43493;53.098;6.064;2023-09-19T09:43:36;18.00;99.90
57664;DHT22;43493;53.098;6.064;2023-09-19T09:49:02;18.10;99.90
57664;DHT22;43493;53.098;6.064;2023-09-19T09:51:50;18.00;99.90
57664;DHT22;43493;53.098;6.064;2023-09-19T09:54:26;17.90;99.90
57664;DHT22;43493;53.098;6.064;2023-09-19T09:57:05;17.90;99.90
57664;DHT22;43493;53.098;6.064;2023-09-19T10:02:20;17.90;99.90
57664;DHT22;43493;53.098;6.064;2023-09-19T10:04:54;17.90;99.90
57664;DHT22;43493;53.098;6.064;2023-09-19T10:07:32;17.90;99.90
57664;DHT22;43493;53.098;6.064;2023-09-19T10:10:02;18.00;99.90
57664;DHT22;43493;53.098;6.064;2023-09-19T10:12:47;18.10;99.90
57664;DHT22;43493;53.098;6.064;2023-09-19T10:15:16;18.10;99.90
57664;DHT22;43493;53.098;6.064;2023-09-19T10:17:44;18.30;99.90
57664;DHT22;43493;53.098;6.064;2023-09-19T10:20:15;18.30;99.90
57664;DHT22;43493;53.098;6.064;2023-09-19T10:23:07;18.40;99.90
57664;DHT22;43493;53.098;6.064;2023-09-19T10:25:40;18.40;99.90
57664;DHT22;43493;53.098;6.064;2023-09-19T10:28:07;18.40;99.90
57664;DHT22;43493;53.098;6.064;2023-09-19T10:30:37;18.40;99.90
57664;DHT22;43493;53.098;6.064;2023-09-19T10:33:11;18.30;99.90
57664;DHT22;43493;53.098;6.064;2023-09-19T10:35:48;18.30;99.90
57664;DHT22;43493;53.098;6.064;2023-09-19T10:38:17;18.20;99.90
57664;DHT22;43493;53.098;6.064;2023-09-19T10:40:44;18.20;99.90
57664;DHT22;43493;53.098;6.064;2023-09-19T10:43:16;18.30;99.90
57664;DHT22;43493;53.098;6.064;2023-09-19T10:45:47;18.30;99.90
57664;DHT22;43493;53.098;6.064;2023-09-19T10:48:18;18.30;99.90
57664;DHT22;43493;53.098;6.064;2023-09-19T10:50:57;18.20;99.90
57664;DHT22;43493;53.098;6.064;2023-09-19T10:53:25;18.00;99.90
57664;DHT22;43493;53.098;6.064;2023-09-19T10:55:56;18.00;99.90
57664;DHT22;43493;53.098;6.064;2023-09-19T10:58:32;18.00;99.90
57664;DHT22;43493;53.098;6.064;2023-09-19T11:01:04;18.00;99.90
57664;DHT22;43493;53.098;6.064;2023-09-19T11:03:41;17.90;99.90
57664;DHT22;43493;53.098;6.064;2023-09-19T11:06:18;17.90;99.90
57664;DHT22;43493;53.098;6.064;2023-09-19T11:08:54;17.90;99.90
57664;DHT22;43493;53.098;6.064;2023-09-19T11:11:39;17.90;99.90
57664;DHT22;43493;53.098;6.064;2023-09-19T11:30:32;18.40;99.90
57664;DHT22;43493;53.098;6.064;2023-09-19T11:33:20;18.50;99.90
57664;DHT22;43493;53.098;6.064;2023-09-19T11:43:49;18.50;99.90
57664;DHT22;43493;53.098;6.064;2023-09-19T11:46:17;18.40;99.90
57664;DHT22;43493;53.098;6.064;2023-09-19T11:48:50;18.30;99.90
57664;DHT22;43493;53.098;6.064;2023-09-19T11:51:22;18.30;99.90
57664;DHT22;43493;53.098;6.064;2023-09-19T11:53:56;18.20;99.90
57664;DHT22;43493;53.098;6.064;2023-09-19T11:56:26;18.20;99.90
57664;DHT22;43493;53.098;6.064;2023-09-19T11:58:57;18.20;99.90
57664;DHT22;43493;53.098;6.064;2023-09-19T12:01:30;18.20;99.90
57664;DHT22;43493;53.098;6.064;2023-09-19T12:03:59;18.20;99.90
57664;DHT22;43493;53.098;6.064;2023-09-19T12:06:26;18.10;99.90
57664;DHT22;43493;53.098;6.064;2023-09-19T12:08:52;18.00;99.90
57664;DHT22;43493;53.098;6.064;2023-09-19T12:11:23;17.90;99.90
57664;DHT22;43493;53.098;6.064;2023-09-19T12:13:51;17.90;99.90
57664;DHT22;43493;53.098;6.064;2023-09-19T12:16:22;17.70;99.90
57664;DHT22;43493;53.098;6.064;2023-09-19T12:18:48;17.60;99.90
57664;DHT22;43493;53.098;6.064;2023-09-19T12:21:33;17.60;99.90
57664;DHT22;43493;53.098;6.064;2023-09-19T12:24:13;17.60;99.90
57664;DHT22;43493;53.098;6.064;2023-09-19T12:26:41;17.70;99.90
57664;DHT22;43493;53.098;6.064;2023-09-19T12:29:25;17.70;99.90
57664;DHT22;43493;53.098;6.064;2023-09-19T12:31:53;17.90;99.90
57664;DHT22;43493;53.098;6.064;2023-09-19T12:34:26;17.90;99.90
57664;DHT22;43493;53.098;6.064;2023-09-19T12:37:08;17.90;99.90
57664;DHT22;43493;53.098;6.064;2023-09-19T12:39:45;18.00;99.90
57664;DHT22;43493;53.098;6.064;2023-09-19T12:42:23;17.90;99.90
57664;DHT22;43493;53.098;6.064;2023-09-19T12:44:50;17.90;99.90
57664;DHT22;43493;53.098;6.064;2023-09-19T12:47:27;17.90;99.90
57664;DHT22;43493;53.098;6.064;2023-09-19T12:50:07;17.90;99.90
57664;DHT22;43493;53.098;6.064;2023-09-19T12:52:43;17.90;99.90
57664;DHT22;43493;53.098;6.064;2023-09-19T12:55:24;17.90;99.90
57664;DHT22;43493;53.098;6.064;2023-09-19T13:00:21;17.90;99.90
57664;DHT22;43493;53.098;6.064;2023-09-19T13:06:07;17.70;99.90
57664;DHT22;43493;53.098;6.064;2023-09-19T13:08:37;17.50;99.90
57664;DHT22;43493;53.098;6.064;2023-09-19T13:11:15;17.50;99.90
57664;DHT22;43493;53.098;6.064;2023-09-19T13:14:13;17.40;99.90
57664;DHT22;43493;53.098;6.064;2023-09-19T13:19:42;17.30;99.90
57664;DHT22;43493;53.098;6.064;2023-09-19T13:22:42;17.30;99.90
57664;DHT22;43493;53.098;6.064;2023-09-19T13:25:11;17.40;99.90
57664;DHT22;43493;53.098;6.064;2023-09-19T13:27:48;17.50;99.90
57664;DHT22;43493;53.098;6.064;2023-09-19T13:30:17;17.60;99.90
57664;DHT22;43493;53.098;6.064;2023-09-19T13:32:44;17.60;99.90
57664;DHT22;43493;53.098;6.064;2023-09-19T13:35:09;17.70;99.90
57664;DHT22;43493;53.098;6.064;2023-09-19T13:37:37;17.70;99.90
57664;DHT22;43493;53.098;6.064;2023-09-19T13:42:34;17.90;99.90
57664;DHT22;43493;53.098;6.064;2023-09-19T13:45:00;18.00;99.90
57664;DHT22;43493;53.098;6.064;2023-09-19T13:47:25;18.10;99.90
57664;DHT22;43493;53.098;6.064;2023-09-19T13:49:52;18.10;99.90
57664;DHT22;43493;53.098;6.064;2023-09-19T13:52:21;18.20;99.90
57664;DHT22;43493;53.098;6.064;2023-09-19T13:54:52;18.10;99.90
57664;DHT22;43493;53.098;6.064;2023-09-19T13:57:18;18.10;99.90
57664;DHT22;43493;53.098;6.064;2023-09-19T13:59:44;18.10;99.90
57664;DHT22;43493;53.098;6.064;2023-09-19T14:02:10;18.10;99.90
57664;DHT22;43493;53.098;6.064;2023-09-19T14:04:35;18.10;99.90
57664;DHT22;43493;53.098;6.064;2023-09-19T14:07:02;18.10;99.90
57664;DHT22;43493;53.098;6.064;2023-09-19T14:09:29;18.00;99.90
57664;DHT22;43493;53.098;6.064;2023-09-19T14:11:54;18.00;99.90
57664;DHT22;43493;53.098;6.064;2023-09-19T14:14:20;18.00;99.90
57664;DHT22;43493;53.098;6.064;2023-09-19T14:16:47;17.90;99.90
57664;DHT22;43493;53.098;6.064;2023-09-19T14:19:13;17.90;99.90
57664;DHT22;43493;53.098;6.064;2023-09-19T14:21:41;17.80;99.90
57664;DHT22;43493;53.098;6.064;2023-09-19T14:24:08;17.70;99.90
57664;DHT22;43493;53.098;6.064;2023-09-19T14:26:38;17.70;99.90
57664;DHT22;43493;53.098;6.064;2023-09-19T14:29:04;17.60;99.90
57664;DHT22;43493;53.098;6.064;2023-09-19T14:31:33;17.50;99.90
57664;DHT22;43493;53.098;6.064;2023-09-19T14:33:59;17.50;99.90
57664;DHT22;43493;53.098;6.064;2023-09-19T14:36:25;17.60;99.90
57664;DHT22;43493;53.098;6.064;2023-09-19T14:38:55;17.60;99.90
57664;DHT22;43493;53.098;6.064;2023-09-19T14:41:23;17.60;99.90
57664;DHT22;43493;53.098;6.064;2023-09-19T14:43:54;17.70;99.90
57664;DHT22;43493;53.098;6.064;2023-09-19T14:46:21;17.60;99.90
57664;DHT22;43493;53.098;6.064;2023-09-19T14:48:47;17.60;99.90
57664;DHT22;43493;53.098;6.064;2023-09-19T14:51:13;17.70;99.90
57664;DHT22;43493;53.098;6.064;2023-09-19T14:53:42;17.70;99.90
57664;DHT22;43493;53.098;6.064;2023-09-19T14:56:09;17.70;99.90
57664;DHT22;43493;53.098;6.064;2023-09-19T14:58:35;17.70;99.90
57664;DHT22;43493;53.098;6.064;2023-09-19T15:01:04;17.70;99.90
57664;DHT22;43493;53.098;6.064;2023-09-19T15:03:32;17.70;99.90
57664;DHT22;43493;53.098;6.064;2023-09-19T15:06:02;17.70;99.90
57664;DHT22;43493;53.098;6.064;2023-09-19T15:08:30;17.60;99.90
57664;DHT22;43493;53.098;6.064;2023-09-19T15:10:56;17.60;99.90
57664;DHT22;43493;53.098;6.064;2023-09-19T15:13:24;17.60;99.90
57664;DHT22;43493;53.098;6.064;2023-09-19T15:15:59;17.50;99.90
57664;DHT22;43493;53.098;6.064;2023-09-19T15:18:25;17.40;99.90
57664;DHT22;43493;53.098;6.064;2023-09-19T15:20:50;17.40;99.90
57664;DHT22;43493;53.098;6.064;2023-09-19T15:23:16;17.30;99.90
57664;DHT22;43493;53.098;6.064;2023-09-19T15:25:50;17.30;99.90
57664;DHT22;43493;53.098;6.064;2023-09-19T15:28:16;17.40;99.90
57664;DHT22;43493;53.098;6.064;2023-09-19T15:30:42;17.40;99.90
57664;DHT22;43493;53.098;6.064;2023-09-19T15:33:07;17.40;99.90
57664;DHT22;43493;53.098;6.064;2023-09-19T15:35:33;17.30;99.90
57664;DHT22;43493;53.098;6.064;2023-09-19T15:38:03;17.30;99.90
57664;DHT22;43493;53.098;6.064;2023-09-19T15:40:29;17.30;99.90
57664;DHT22;43493;53.098;6.064;2023-09-19T15:42:54;17.30;99.90
57664;DHT22;43493;53.098;6.064;2023-09-19T15:45:22;17.30;99.90
57664;DHT22;43493;53.098;6.064;2023-09-19T15:47:48;17.20;99.90
57664;DHT22;43493;53.098;6.064;2023-09-19T15:50:14;17.20;99.90
57664;DHT22;43493;53.098;6.064;2023-09-19T15:52:41;17.20;99.90
57664;DHT22;43493;53.098;6.064;2023-09-19T15:55:08;17.10;99.90
57664;DHT22;43493;53.098;6.064;2023-09-19T15:57:38;17.10;99.90
57664;DHT22;43493;53.098;6.064;2023-09-19T16:00:05;17.10;99.90
57664;DHT22;43493;53.098;6.064;2023-09-19T16:02:39;17.00;99.90
57664;DHT22;43493;53.098;6.064;2023-09-19T16:05:05;17.00;99.90
57664;DHT22;43493;53.098;6.064;2023-09-19T16:07:31;17.00;99.90
57664;DHT22;43493;53.098;6.064;2023-09-19T16:09:57;17.00;99.90
57664;DHT22;43493;53.098;6.064;2023-09-19T16:12:25;17.00;99.90
57664;DHT22;43493;53.098;6.064;2023-09-19T16:14:51;17.00;99.90
57664;DHT22;43493;53.098;6.064;2023-09-19T16:17:17;16.90;99.90
57664;DHT22;43493;53.098;6.064;2023-09-19T16:19:43;16.90;99.90
57664;DHT22;43493;53.098;6.064;2023-09-19T16:22:10;16.80;99.90
57664;DHT22;43493;53.098;6.064;2023-09-19T16:24:35;16.70;99.90
57664;DHT22;43493;53.098;6.064;2023-09-19T16:27:01;16.70;99.90
57664;DHT22;43493;53.098;6.064;2023-09-19T16:29:27;16.70;99.90
57664;DHT22;43493;53.098;6.064;2023-09-19T16:31:53;16.70;99.90
57664;DHT22;43493;53.098;6.064;2023-09-19T16:34:18;16.60;99.90
57664;DHT22;43493;53.098;6.064;2023-09-19T16:36:44;16.60;99.90
57664;DHT22;43493;53.098;6.064;2023-09-19T16:39:10;16.60;99.90
57664;DHT22;43493;53.098;6.064;2023-09-19T16:41:36;16.60;99.90
57664;DHT22;43493;53.098;6.064;2023-09-19T16:44:02;16.60;99.90